Time;durP1;ratioP1;P1;durP2;ratioP2;P2;SDS_P1;SDS_P2;PMS_P1;PMS_P2;Temp;Humidity;BMP_temperature;BMP_pressure;BME280_temperature;BME280_humidity;BME280_pressure;Samples;Min_cycle;Max_cycle;Signal;HPM_P1;HPM_P2
2022/04/11 00:00:51;;;;;;;8.23;5.90;;;11.20;95.10;;;;;;5061111;28;20251;-38
2022/04/11 00:03:21;;;;;;;10.17;6.20;;;11.20;95.10;;;;;;5064392;28;20718;-37
2022/04/11 00:05:51;;;;;;;8.03;6.00;;;11.20;95.10;;;;;;5049713;28;20247;-37
2022/04/11 00:08:21;;;;;;;7.50;5.80;;;11.20;95.10;;;;;;5053879;28;20654;-37
2022/04/11 00:10:51;;;;;;;8.47;5.80;;;11.20;95.10;;;;;;5050657;28;20277;-38
2022/04/11 00:13:18;;;;;;;6.77;5.80;;;11.20;95.10;;;;;;5058822;28;20288;-37
2022/04/11 00:15:48;;;;;;;8.20;5.90;;;11.20;95.10;;;;;;5057739;28;20299;-37
2022/04/11 00:18:15;;;;;;;8.17;5.57;;;11.20;95.10;;;;;;5056579;28;20219;-38
2022/04/11 00:20:43;;;;;;;8.63;5.83;;;11.20;95.10;;;;;;5078241;28;20298;-36
2022/04/11 00:23:12;;;;;;;8.27;5.40;;;11.10;95.10;;;;;;5061646;28;20208;-38
2022/04/11 00:25:39;;;;;;;7.23;5.47;;;11.20;95.10;;;;;;5050195;28;20200;-38
2022/04/11 00:28:07;;;;;;;7.53;5.03;;;11.10;95.00;;;;;;5062951;28;20261;-38
2022/04/11 00:30:36;;;;;;;7.23;5.37;;;11.10;95.00;;;;;;5056243;28;20223;-38
2022/04/11 00:33:03;;;;;;;9.00;5.47;;;11.10;95.00;;;;;;5047816;28;20670;-38
2022/04/11 00:35:33;;;;;;;7.20;5.50;;;11.10;95.00;;;;;;5047512;28;20250;-38
2022/04/11 00:38:03;;;;;;;7.57;5.03;;;11.10;95.00;;;;;;5060174;28;20237;-38
2022/04/11 00:40:30;;;;;;;7.00;5.27;;;11.10;95.00;;;;;;5061308;28;20203;-38
2022/04/11 00:43:02;;;;;;;8.70;5.13;;;11.00;94.90;;;;;;5048706;28;20266;-38
2022/04/11 00:45:32;;;;;;;8.07;5.47;;;11.00;94.90;;;;;;5067873;28;20206;-38
2022/04/11 00:47:59;;;;;;;12.07;5.80;;;11.00;94.90;;;;;;5048103;28;20260;-38
2022/04/11 00:50:28;;;;;;;8.47;5.43;;;11.00;94.90;;;;;;5069666;28;20253;-38
2022/04/11 00:53:00;;;;;;;8.57;5.10;;;10.90;94.90;;;;;;5065098;28;20220;-38
2022/04/11 00:55:30;;;;;;;7.00;5.00;;;11.00;94.90;;;;;;5064174;28;20235;-38
2022/04/11 00:57:59;;;;;;;7.03;5.43;;;10.90;94.90;;;;;;5060899;28;20228;-38
2022/04/11 01:00:29;;;;;;;6.97;5.10;;;10.90;94.90;;;;;;5059582;28;20204;-38
2022/04/11 01:02:56;;;;;;;8.77;5.60;;;10.90;94.90;;;;;;5062817;28;20214;-38
2022/04/11 01:05:24;;;;;;;8.20;5.50;;;10.90;94.90;;;;;;5061221;28;20296;-38
2022/04/11 01:07:51;;;;;;;8.90;5.30;;;10.90;94.90;;;;;;5054708;28;20207;-38
2022/04/11 01:10:25;;;;;;;8.33;5.10;;;10.90;94.90;;;;;;5059813;28;20220;-38
2022/04/11 01:12:55;;;;;;;8.63;5.00;;;10.80;94.80;;;;;;5060268;28;20288;-38
2022/04/11 01:15:28;;;;;;;9.30;5.43;;;10.80;94.80;;;;;;5060375;28;20222;-38
2022/04/11 01:17:55;;;;;;;11.97;5.53;;;10.80;94.80;;;;;;5059191;28;20314;-38
2022/04/11 01:20:25;;;;;;;8.60;5.63;;;10.80;94.80;;;;;;5060844;28;20207;-38
2022/04/11 01:22:55;;;;;;;10.23;5.37;;;10.70;94.80;;;;;;5063988;28;20487;-38
2022/04/11 01:25:24;;;;;;;7.17;5.40;;;10.70;94.80;;;;;;5062053;28;20196;-38
2022/04/11 01:27:51;;;;;;;9.13;5.43;;;10.70;94.80;;;;;;5063101;28;20226;-38
2022/04/11 01:30:26;;;;;;;8.40;5.57;;;10.70;94.80;;;;;;5059716;28;20280;-38
2022/04/11 01:32:58;;;;;;;6.83;5.27;;;10.60;94.70;;;;;;5047131;28;20295;-38
2022/04/11 01:35:27;;;;;;;7.57;5.27;;;10.60;94.70;;;;;;5053955;28;20299;-38
2022/04/11 01:37:55;;;;;;;7.13;4.97;;;10.60;94.70;;;;;;5065993;28;20659;-38
2022/04/11 01:40:22;;;;;;;8.17;5.53;;;10.50;94.70;;;;;;5050890;28;20197;-38
2022/04/11 01:42:54;;;;;;;10.50;5.80;;;10.50;94.70;;;;;;5061668;28;20217;-38
2022/04/11 01:45:21;;;;;;;6.60;5.13;;;10.50;94.70;;;;;;5065849;28;20223;-38
2022/04/11 01:47:49;;;;;;;6.53;5.00;;;10.50;94.70;;;;;;5057190;28;20222;-38
2022/04/11 01:50:21;;;;;;;6.33;4.93;;;10.50;94.70;;;;;;5060771;28;20258;-38
2022/04/11 01:52:49;;;;;;;8.27;5.23;;;10.40;94.60;;;;;;5057938;28;20204;-38
2022/04/11 01:55:18;;;;;;;7.40;5.13;;;10.40;94.60;;;;;;5050745;28;20318;-38
2022/04/11 01:57:45;;;;;;;8.27;5.50;;;10.40;94.60;;;;;;5066262;28;20207;-38
2022/04/11 02:00:18;;;;;;;7.53;4.73;;;10.30;94.60;;;;;;5065004;28;20203;-38
2022/04/11 02:02:45;;;;;;;9.00;5.33;;;10.30;94.60;;;;;;5059410;28;20299;-38
2022/04/11 02:05:15;;;;;;;7.17;5.20;;;10.20;94.50;;;;;;5058524;28;20640;-38
2022/04/11 02:07:42;;;;;;;9.17;5.17;;;10.20;94.50;;;;;;5050670;28;20192;-38
2022/04/11 02:10:13;;;;;;;7.20;4.70;;;10.20;94.50;;;;;;5061737;28;20219;-38
2022/04/11 02:12:40;;;;;;;6.37;5.03;;;10.10;94.80;;;;;;5063836;28;20777;-38
2022/04/11 02:15:11;;;;;;;7.93;5.07;;;10.10;94.50;;;;;;5065987;28;20500;-37
2022/04/11 02:17:39;;;;;;;7.13;5.43;;;10.00;94.50;;;;;;5065054;28;20225;-38
2022/04/11 02:20:08;;;;;;;7.80;5.20;;;10.00;94.50;;;;;;5069710;28;20295;-38
2022/04/11 02:22:55;;;;;;;8.50;5.20;;;9.90;95.00;;;;;;5054851;28;20737;-38
2022/04/11 02:25:24;;;;;;;8.53;5.23;;;9.90;94.90;;;;;;5064649;28;20733;-38
2022/04/11 02:27:54;;;;;;;8.17;4.77;;;9.80;94.90;;;;;;5065669;28;20771;-38
2022/04/11 02:30:22;;;;;;;8.87;5.43;;;9.80;94.90;;;;;;5062053;28;20294;-38
2022/04/11 02:32:53;;;;;;;11.23;5.23;;;9.80;94.90;;;;;;5064030;28;20203;-47
2022/04/11 02:35:21;;;;;;;7.17;5.13;;;9.70;94.90;;;;;;5064577;28;20643;-48
2022/04/11 02:37:48;;;;;;;6.10;4.90;;;9.70;94.90;;;;;;5054191;28;20220;-48
2022/04/11 02:40:21;;;;;;;8.10;5.33;;;9.60;94.80;;;;;;5061677;28;20318;-46
2022/04/11 02:42:53;;;;;;;6.73;5.03;;;9.60;94.90;;;;;;5062822;28;20230;-48
2022/04/11 02:45:23;;;;;;;8.30;4.77;;;9.50;94.80;;;;;;5055984;28;20465;-47
2022/04/11 02:47:50;;;;;;;6.57;4.53;;;9.50;94.90;;;;;;5059938;28;20289;-48
2022/04/11 02:50:17;;;;;;;8.07;4.73;;;9.40;94.80;;;;;;5055956;28;20212;-48
2022/04/11 02:52:45;;;;;;;8.10;4.70;;;9.40;94.80;;;;;;5046703;28;20697;-38
2022/04/11 02:55:12;;;;;;;8.53;4.90;;;9.40;94.80;;;;;;5050076;28;21081;-38
2022/04/11 02:57:42;;;;;;;5.60;4.53;;;9.30;94.80;;;;;;5064361;28;20220;-37
2022/04/11 03:00:12;;;;;;;6.20;4.43;;;9.30;94.80;;;;;;5059356;28;20605;-38
2022/04/11 03:02:39;;;;;;;6.43;4.43;;;9.30;94.80;;;;;;5066920;28;20219;-38
2022/04/11 03:05:12;;;;;;;7.47;4.83;;;9.20;94.80;;;;;;5061891;28;20200;-38
2022/04/11 03:07:41;;;;;;;5.77;3.63;;;9.20;95.10;;;;;;5065502;28;20295;-38
2022/04/11 03:10:11;;;;;;;7.10;3.93;;;9.20;94.80;;;;;;5052320;28;20265;-38
2022/04/11 03:12:40;;;;;;;6.17;3.93;;;9.10;94.70;;;;;;5059380;28;20207;-38
2022/04/11 03:15:11;;;;;;;8.37;4.63;;;9.10;94.70;;;;;;5049398;28;20196;-38
2022/04/11 03:17:40;;;;;;;9.33;4.43;;;9.10;94.80;;;;;;5052750;28;20239;-38
2022/04/11 03:20:08;;;;;;;5.83;3.73;;;9.00;94.70;;;;;;5056988;28;20212;-38
2022/04/11 03:22:38;;;;;;;6.87;4.00;;;9.00;94.70;;;;;;5049983;28;20210;-38
2022/04/11 03:25:08;;;;;;;5.93;3.73;;;9.00;94.70;;;;;;5049187;28;20674;-38
2022/04/11 03:27:35;;;;;;;6.93;3.80;;;8.90;94.70;;;;;;5060962;28;20234;-38
2022/04/11 03:30:06;;;;;;;7.63;3.47;;;8.90;94.70;;;;;;5061481;28;20239;-38
2022/04/11 03:32:33;;;;;;;6.60;3.83;;;8.90;94.70;;;;;;5055528;28;20291;-38
2022/04/11 03:35:05;;;;;;;4.57;3.00;;;8.80;94.60;;;;;;5059702;28;20635;-38
2022/04/11 03:37:35;;;;;;;7.10;3.77;;;8.80;94.60;;;;;;5060047;28;20227;-38
2022/04/11 03:40:07;;;;;;;4.20;3.27;;;8.80;94.80;;;;;;5051830;28;20702;-38
2022/04/11 03:42:34;;;;;;;4.40;3.37;;;8.80;94.60;;;;;;5067812;28;20245;-38
2022/04/11 03:45:04;;;;;;;7.20;3.43;;;8.70;94.60;;;;;;5066477;28;20224;-38
2022/04/11 03:47:37;;;;;;;5.27;3.60;;;8.70;94.60;;;;;;5059370;28;20554;-38
2022/04/11 03:50:07;;;;;;;6.53;3.80;;;8.70;94.60;;;;;;5047286;28;20345;-38
2022/04/11 03:52:34;;;;;;;7.03;4.00;;;8.70;94.60;;;;;;5069277;28;20592;-37
2022/04/11 03:55:05;;;;;;;4.97;3.60;;;8.70;94.60;;;;;;5066858;28;20776;-38
2022/04/11 03:57:37;;;;;;;6.37;3.57;;;8.70;94.60;;;;;;5067414;28;20249;-38
2022/04/11 04:00:08;;;;;;;7.30;4.00;;;8.60;94.60;;;;;;5050859;28;20232;-37
2022/04/11 04:02:35;;;;;;;9.33;3.83;;;8.60;94.60;;;;;;5050653;28;20393;-38
2022/04/11 04:05:03;;;;;;;4.67;3.40;;;8.60;94.60;;;;;;5049135;28;20206;-38
2022/04/11 04:07:30;;;;;;;6.70;3.93;;;8.60;94.60;;;;;;5055358;28;20656;-38
2022/04/11 04:09:59;;;;;;;4.70;3.63;;;8.60;94.60;;;;;;5059259;28;20903;-38
2022/04/11 04:12:29;;;;;;;5.40;3.63;;;8.60;94.60;;;;;;5048512;28;20219;-37
2022/04/11 04:14:56;;;;;;;4.27;3.37;;;8.60;94.60;;;;;;5062548;28;20678;-38
2022/04/11 04:17:23;;;;;;;7.03;3.57;;;8.50;94.60;;;;;;5062885;28;20192;-37
2022/04/11 04:19:54;;;;;;;8.03;3.77;;;8.50;94.60;;;;;;5062457;28;20925;-37
2022/04/11 04:22:22;;;;;;;6.57;3.83;;;8.50;94.60;;;;;;5056868;28;20262;-37
2022/04/11 04:24:53;;;;;;;4.83;3.23;;;8.50;94.60;;;;;;5063871;28;20200;-36
2022/04/11 04:27:23;;;;;;;6.53;3.40;;;8.50;94.60;;;;;;5065790;28;20190;-36
2022/04/11 04:29:50;;;;;;;5.97;3.77;;;8.50;94.60;;;;;;5057330;28;20277;-38
2022/04/11 04:32:18;;;;;;;6.07;3.33;;;8.50;94.60;;;;;;5055433;28;20211;-38
2022/04/11 04:34:51;;;;;;;6.13;3.43;;;8.50;94.60;;;;;;5066539;28;20705;-38
2022/04/11 04:37:22;;;;;;;6.80;3.90;;;8.50;94.60;;;;;;5065468;28;20610;-38
2022/04/11 04:39:54;;;;;;;6.33;3.73;;;8.50;94.70;;;;;;5050140;28;20336;-38
2022/04/11 04:42:26;;;;;;;6.43;3.63;;;8.50;94.70;;;;;;5056115;28;20197;-38
2022/04/11 04:44:54;;;;;;;7.60;3.77;;;8.50;94.60;;;;;;5063380;28;20332;-38
2022/04/11 04:47:25;;;;;;;6.70;4.10;;;8.40;94.60;;;;;;5059844;28;20212;-37
2022/04/11 04:49:55;;;;;;;6.40;3.80;;;8.40;94.60;;;;;;5062722;28;20748;-38
2022/04/11 04:52:27;;;;;;;6.23;4.00;;;8.40;94.60;;;;;;5058865;28;20204;-38
2022/04/11 04:54:56;;;;;;;6.90;3.67;;;8.40;94.60;;;;;;5062288;28;21083;-38
2022/04/11 04:57:26;;;;;;;5.90;3.50;;;8.40;94.60;;;;;;5057746;28;20771;-38
2022/04/11 04:59:56;;;;;;;8.67;3.87;;;8.30;94.60;;;;;;5066877;28;20227;-38
2022/04/11 05:02:23;;;;;;;7.00;3.40;;;8.40;94.60;;;;;;5060058;28;20246;-38
2022/04/11 05:04:51;;;;;;;7.10;3.33;;;8.30;94.60;;;;;;5066779;28;20216;-38
2022/04/11 05:07:18;;;;;;;4.73;3.10;;;8.30;94.60;;;;;;5065603;28;20572;-36
2022/04/11 05:09:47;;;;;;;6.10;3.40;;;8.30;94.60;;;;;;5065647;28;20258;-37
2022/04/11 05:12:15;;;;;;;6.60;3.30;;;8.40;94.60;;;;;;5059627;28;20246;-37
2022/04/11 05:14:44;;;;;;;7.53;3.37;;;8.40;94.70;;;;;;5054378;28;20214;-37
2022/04/11 05:17:11;;;;;;;7.27;3.40;;;8.40;94.60;;;;;;5058809;28;20314;-37
2022/04/11 05:19:46;;;;;;;6.20;3.13;;;8.40;94.70;;;;;;5058813;28;20215;-37
2022/04/11 05:22:13;;;;;;;6.67;3.00;;;8.50;94.70;;;;;;5063220;28;20226;-37
2022/04/11 05:24:45;;;;;;;9.03;3.70;;;8.50;94.70;;;;;;5064036;28;20243;-37
2022/04/11 05:27:12;;;;;;;5.10;3.00;;;8.50;94.80;;;;;;5055968;28;20200;-37
2022/04/11 05:29:39;;;;;;;8.67;3.20;;;8.50;94.80;;;;;;5062450;28;20721;-37
2022/04/11 05:32:09;;;;;;;6.30;3.50;;;8.60;94.80;;;;;;5055395;28;20254;-37
2022/04/11 05:34:37;;;;;;;8.80;3.07;;;8.60;95.10;;;;;;5058348;28;20260;-37
2022/04/11 05:37:12;;;;;;;8.73;3.50;;;8.60;94.80;;;;;;5051714;28;20199;-37
2022/04/11 05:39:46;;;;;;;7.33;2.73;;;8.70;94.90;;;;;;5065706;28;21082;-37
2022/04/11 05:42:13;;;;;;;6.53;3.00;;;8.70;94.90;;;;;;5060168;28;20208;-37
2022/04/11 05:44:40;;;;;;;6.87;2.90;;;8.70;94.90;;;;;;5062445;28;20245;-37
2022/04/11 05:47:08;;;;;;;5.50;2.57;;;8.80;95.00;;;;;;5056306;28;20203;-37
2022/04/11 05:49:37;;;;;;;10.67;3.00;;;8.80;95.00;;;;;;5059253;28;20228;-38
2022/04/11 05:52:10;;;;;;;9.33;2.93;;;8.80;95.00;;;;;;5063047;28;20223;-38
2022/04/11 05:54:43;;;;;;;5.70;2.70;;;8.90;95.00;;;;;;5065403;28;20333;-38
2022/04/11 05:57:10;;;;;;;7.43;2.63;;;8.90;95.00;;;;;;5055499;28;20200;-37
2022/04/11 05:59:37;;;;;;;4.80;2.90;;;9.00;95.00;;;;;;5059125;28;20713;-37
2022/04/11 06:02:05;;;;;;;5.63;2.73;;;9.00;95.00;;;;;;5056074;28;20210;-38
2022/04/11 06:04:34;;;;;;;5.23;2.80;;;9.10;95.10;;;;;;5055654;28;20693;-38
2022/04/11 06:07:02;;;;;;;6.87;3.47;;;9.10;95.10;;;;;;5056753;28;20242;-37
2022/04/11 06:09:29;;;;;;;8.40;3.10;;;9.20;95.10;;;;;;5050413;28;20214;-38
2022/04/11 06:11:57;;;;;;;5.37;3.00;;;9.20;95.10;;;;;;5054899;28;20682;-37
2022/04/11 06:14:27;;;;;;;3.83;2.47;;;9.30;95.20;;;;;;5049778;28;20787;-37
2022/04/11 06:16:56;;;;;;;5.97;2.73;;;9.30;95.20;;;;;;5053913;28;20226;-38
2022/04/11 06:19:26;;;;;;;6.20;2.93;;;9.30;95.20;;;;;;5052757;28;20702;-37
2022/04/11 06:21:53;;;;;;;10.07;3.40;;;9.40;95.30;;;;;;5051993;28;20676;-37
2022/04/11 06:24:25;;;;;;;5.17;2.77;;;9.40;95.30;;;;;;5055601;28;20287;-37
2022/04/11 06:26:54;;;;;;;7.47;3.13;;;9.50;95.30;;;;;;5057301;28;20296;-38
2022/04/11 06:29:25;;;;;;;6.13;3.03;;;9.50;95.30;;;;;;5050697;28;20223;-37
2022/04/11 06:31:52;;;;;;;8.10;3.13;;;9.50;95.30;;;;;;5051536;28;20783;-37
2022/04/11 06:34:26;;;;;;;6.37;2.97;;;9.50;95.30;;;;;;5063337;28;20211;-37
2022/04/11 06:36:55;;;;;;;3.57;2.97;;;9.60;95.30;;;;;;5064369;28;20212;-37
2022/04/11 06:39:25;;;;;;;6.13;3.03;;;9.60;95.30;;;;;;5050787;28;20224;-37
2022/04/11 06:41:54;;;;;;;5.20;3.70;;;9.60;95.30;;;;;;5062962;28;20192;-37
2022/04/11 06:44:21;;;;;;;7.37;3.50;;;9.60;95.30;;;;;;5060923;28;20232;-37
2022/04/11 06:46:49;;;;;;;8.07;3.00;;;9.70;95.40;;;;;;5054778;28;20204;-37
2022/04/11 06:49:21;;;;;;;6.67;3.30;;;9.70;95.40;;;;;;5051722;28;20207;-37
2022/04/11 06:51:55;;;;;;;7.23;3.50;;;9.70;95.40;;;;;;5053277;28;20211;-47
2022/04/11 06:54:24;;;;;;;8.87;3.53;;;9.70;95.40;;;;;;5052880;28;20237;-46
2022/04/11 06:56:56;;;;;;;5.83;2.83;;;9.80;95.50;;;;;;5053814;28;20208;-46
2022/04/11 06:59:24;;;;;;;5.93;3.10;;;9.80;95.50;;;;;;5053549;28;20220;-47
2022/04/11 07:01:54;;;;;;;5.00;3.13;;;9.90;95.60;;;;;;5057541;28;20224;-46
2022/04/11 07:04:24;;;;;;;5.73;3.03;;;9.90;95.60;;;;;;5054135;28;20223;-46
2022/04/11 07:06:51;;;;;;;3.90;2.67;;;10.00;95.10;;;;;;5066862;28;20617;-46
2022/04/11 07:09:19;;;;;;;6.47;2.90;;;10.00;95.10;;;;;;5064630;28;20204;-46
2022/04/11 07:11:48;;;;;;;4.77;2.90;;;10.00;95.10;;;;;;5064437;28;20216;-46
2022/04/11 07:14:15;;;;;;;5.23;2.57;;;10.10;95.20;;;;;;5061468;28;20277;-46
2022/04/11 07:16:49;;;;;;;3.60;2.40;;;10.10;95.20;;;;;;5056820;28;20208;-45
2022/04/11 07:19:24;;;;;;;3.20;2.37;;;10.20;95.20;;;;;;5052399;28;20285;-46
2022/04/11 07:21:53;;;;;;;6.40;3.00;;;10.20;95.20;;;;;;5051383;28;20294;-46
2022/04/11 07:24:23;;;;;;;6.07;2.73;;;10.20;95.20;;;;;;5052253;28;20206;-50
2022/04/11 07:26:55;;;;;;;6.97;3.53;;;10.30;95.30;;;;;;5063589;28;20193;-45
2022/04/11 07:29:24;;;;;;;9.67;3.07;;;10.30;95.30;;;;;;5051292;28;20215;-46
2022/04/11 07:31:51;;;;;;;5.67;2.93;;;10.40;95.40;;;;;;5050932;28;20207;-46
2022/04/11 07:34:21;;;;;;;7.57;3.30;;;10.40;95.40;;;;;;5051561;28;20298;-46
2022/04/11 07:36:51;;;;;;;8.43;3.70;;;10.50;95.40;;;;;;5053921;28;20200;-46
2022/04/11 07:39:19;;;;;;;9.43;3.20;;;10.50;95.50;;;;;;5050165;28;20242;-45
2022/04/11 07:41:53;;;;;;;11.30;3.43;;;10.60;95.50;;;;;;5051172;28;20299;-45
2022/04/11 07:44:20;;;;;;;4.33;2.70;;;10.70;95.60;;;;;;5060346;28;20679;-45
2022/04/11 07:46:49;;;;;;;5.83;3.00;;;10.70;95.60;;;;;;5049784;28;20220;-38
2022/04/11 07:49:17;;;;;;;4.23;3.03;;;10.80;95.70;;;;;;5054381;28;20298;-38
2022/04/11 07:51:46;;;;;;;7.93;3.13;;;10.80;95.60;;;;;;5054152;28;20281;-38
2022/04/11 07:54:14;;;;;;;5.20;2.57;;;10.90;95.70;;;;;;5058864;28;20239;-37
2022/04/11 07:56:45;;;;;;;6.87;2.80;;;10.90;95.70;;;;;;5057428;28;20226;-37
2022/04/11 07:59:17;;;;;;;4.60;2.90;;;11.00;95.80;;;;;;5054255;28;20686;-37
2022/04/11 08:01:47;;;;;;;5.67;2.67;;;11.10;96.20;;;;;;5054816;28;20283;-37
2022/04/11 08:04:14;;;;;;;4.90;2.63;;;11.10;95.90;;;;;;5064162;28;20219;-37
2022/04/11 08:06:41;;;;;;;7.50;2.90;;;11.20;95.90;;;;;;5064959;28;20249;-37
2022/04/11 08:09:09;;;;;;;5.40;2.93;;;11.30;96.00;;;;;;5051988;28;20746;-38
2022/04/11 08:11:38;;;;;;;6.80;3.23;;;11.30;96.00;;;;;;5064657;28;20233;-38
2022/04/11 08:14:08;;;;;;;8.70;2.80;;;11.40;96.10;;;;;;5064297;28;20319;-38
2022/04/11 08:16:37;;;;;;;5.07;3.07;;;11.50;96.20;;;;;;5056268;28;20236;-38
2022/04/11 08:19:05;;;;;;;5.27;2.70;;;11.50;96.10;;;;;;5049135;28;20224;-38
2022/04/11 08:21:37;;;;;;;8.57;2.83;;;11.60;96.20;;;;;;5061380;28;20196;-38
2022/04/11 08:24:07;;;;;;;8.13;2.87;;;11.70;96.20;;;;;;5064784;28;20666;-37
2022/04/11 08:26:36;;;;;;;5.80;2.67;;;11.70;96.20;;;;;;5054106;28;20212;-38
2022/04/11 08:29:05;;;;;;;4.23;2.37;;;11.80;96.30;;;;;;5087013;28;20290;-38
2022/04/11 08:31:35;;;;;;;5.50;2.10;;;11.90;96.10;;;;;;5061548;28;20384;-38
2022/04/11 08:34:02;;;;;;;4.97;2.00;;;12.00;96.20;;;;;;5047035;28;20452;-38
2022/04/11 08:36:30;;;;;;;7.23;2.60;;;12.10;96.40;;;;;;5064313;28;20227;-38
2022/04/11 08:38:59;;;;;;;4.23;1.90;;;12.10;96.20;;;;;;5065726;28;20345;-38
2022/04/11 08:41:33;;;;;;;4.67;2.67;;;12.20;96.30;;;;;;5050604;28;20716;-37
2022/04/11 08:44:04;;;;;;;6.20;2.07;;;12.30;96.00;;;;;;5062191;28;20752;-38
2022/04/11 08:46:35;;;;;;;5.60;2.20;;;12.40;96.20;;;;;;5055686;28;20256;-38
2022/04/11 08:49:04;;;;;;;11.03;2.97;;;12.40;96.20;;;;;;5048420;28;20299;-38
2022/04/11 08:51:35;;;;;;;9.03;2.70;;;12.40;96.10;;;;;;5068003;28;20206;-38
2022/04/11 08:54:05;;;;;;;5.20;2.20;;;12.50;96.20;;;;;;5064589;28;20709;-41
2022/04/11 08:56:36;;;;;;;4.57;2.30;;;12.50;96.10;;;;;;5065615;28;20219;-38
2022/04/11 08:59:03;;;;;;;10.27;2.57;;;12.50;96.20;;;;;;5058617;28;20243;-38
2022/04/11 09:01:35;;;;;;;9.67;2.90;;;12.60;96.10;;;;;;5081681;28;20200;-38
2022/04/11 09:04:03;;;;;;;5.40;2.40;;;12.60;95.90;;;;;;5047428;28;20207;-38
2022/04/11 09:06:34;;;;;;;2.30;1.53;;;12.70;95.90;;;;;;5080341;28;20203;-38
2022/04/11 09:09:03;;;;;;;4.30;1.90;;;12.70;95.80;;;;;;5056687;28;20930;-38
2022/04/11 09:11:35;;;;;;;5.13;1.97;;;12.80;95.90;;;;;;5051876;28;20196;-38
2022/04/11 09:14:07;;;;;;;3.80;2.10;;;12.80;96.00;;;;;;5058141;28;20688;-38
2022/04/11 09:16:49;;;;;;;3.57;2.00;;;12.80;96.20;;;;;;5056573;28;20207;-38
2022/04/11 09:19:24;;;;;;;7.10;2.33;;;12.90;96.00;;;;;;5056912;28;20212;-38
2022/04/11 09:22:11;;;;;;;5.47;1.90;;;12.90;96.00;;;;;;5050364;28;20203;-37
2022/04/11 09:24:46;;;;;;;4.63;1.67;;;13.00;96.40;;;;;;5058258;28;20239;-38
2022/04/11 09:27:24;;;;;;;3.80;2.00;;;13.10;96.50;;;;;;5063899;28;20191;-38
2022/04/11 09:29:51;;;;;;;4.23;2.10;;;13.10;96.50;;;;;;5056364;28;20653;-38
2022/04/11 09:32:20;;;;;;;3.77;2.20;;;13.20;95.80;;;;;;5055230;28;20200;-38
2022/04/11 09:34:58;;;;;;;3.87;1.97;;;13.30;96.50;;;;;;5045689;28;20268;-38
2022/04/11 09:37:30;;;;;;;9.90;2.50;;;13.40;96.60;;;;;;5052447;28;20210;-38
2022/04/11 09:39:57;;;;;;;8.43;2.90;;;13.40;96.40;;;;;;5057531;28;20228;-38
2022/04/11 09:42:31;;;;;;;6.10;2.60;;;13.50;96.60;;;;;;5054325;28;20208;-38
2022/04/11 09:45:00;;;;;;;8.47;2.40;;;13.50;96.40;;;;;;5055873;28;20204;-38
2022/04/11 09:48:04;;;;;;;6.73;2.20;;;13.60;96.70;;;;;;5048370;28;20274;-38
2022/04/11 09:50:32;;;;;;;4.67;2.37;;;13.70;96.20;;;;;;5037209;28;20574;-38
2022/04/11 09:53:18;;;;;;;12.70;3.23;;;13.80;96.40;;;;;;5048454;28;20278;-38
2022/04/11 09:55:52;;;;;;;6.53;2.50;;;13.80;96.20;;;;;;5076361;28;20265;-37
2022/04/11 09:58:24;;;;;;;6.50;2.70;;;13.90;96.50;;;;;;5053643;28;20212;-38
2022/04/11 10:00:59;;;;;;;4.80;2.30;;;13.90;96.60;;;;;;5049814;28;20822;-42
2022/04/11 10:03:33;;;;;;;4.60;2.30;;;14.00;96.40;;;;;;5051463;28;20214;-42
2022/04/11 10:06:05;;;;;;;3.63;1.90;;;14.00;96.40;;;;;;5054787;28;20751;-42
2022/04/11 10:08:35;;;;;;;5.07;2.10;;;14.10;96.60;;;;;;5055801;28;20192;-42
2022/04/11 10:11:04;;;;;;;6.10;2.63;;;14.20;96.80;;;;;;5061963;28;20298;-42
2022/04/11 10:13:34;;;;;;;3.73;2.30;;;14.20;96.60;;;;;;5066549;28;20257;-42
2022/04/11 10:16:04;;;;;;;3.70;2.33;;;14.30;96.50;;;;;;5057542;28;20727;-42
2022/04/11 10:18:33;;;;;;;3.80;2.20;;;14.40;96.30;;;;;;5065548;28;20765;-42
2022/04/11 10:21:05;;;;;;;2.17;1.53;;;14.40;96.30;;;;;;5058503;28;20352;-42
2022/04/11 10:24:16;;;;;;;3.77;2.00;;;14.50;96.50;;;;;;5053425;28;20208;-42
2022/04/11 10:26:53;;;;;;;4.17;2.03;;;14.50;96.80;;;;;;5066421;28;20286;-42
2022/04/11 10:29:36;;;;;;;4.75;2.03;;;14.60;96.80;;;;;;5058600;28;20204;-42
2022/04/11 10:32:13;;;;;;;6.23;2.57;;;14.70;96.80;;;;;;5056966;28;20727;-42
2022/04/11 10:35:02;;;;;;;7.23;2.07;;;14.70;96.60;;;;;;5067576;28;20214;-41
2022/04/11 10:37:39;;;;;;;7.30;2.30;;;14.80;96.80;;;;;;5069039;28;20200;-38
2022/04/11 10:40:15;;;;;;;6.50;2.20;;;14.80;96.70;;;;;;5058656;28;20586;-38
2022/04/11 10:43:01;;;;;;;4.33;2.10;;;14.90;96.90;;;;;;5058549;28;20541;-38
2022/04/11 10:45:58;;;;;;;6.60;2.60;;;14.90;96.90;;;;;;5066264;28;20203;-38
2022/04/11 10:49:05;;;;;;;7.70;2.47;;;15.00;96.90;;;;;;5055738;28;20192;-39
2022/04/11 10:51:35;;;;;;;5.13;2.17;;;15.00;96.80;;;;;;5018811;28;20339;-38
2022/04/11 10:54:17;;;;;;;5.30;2.13;;;15.10;96.90;;;;;;5056980;28;20323;-38
2022/04/11 10:57:07;;;;;;;3.97;2.20;;;15.10;96.90;;;;;;5074160;28;20618;-38
2022/04/11 11:00:17;;;;;;;3.10;1.85;;;15.20;96.80;;;;;;5054722;28;20224;-39
2022/04/11 11:02:56;;;;;;;4.07;2.17;;;15.20;96.80;;;;;;5055085;28;20195;-38
2022/04/11 11:05:43;;;;;;;7.63;2.40;;;15.30;96.70;;;;;;5051513;28;20269;-39
2022/04/11 11:08:13;;;;;;;8.23;2.50;;;15.40;97.10;;;;;;5059544;28;20213;-39
2022/04/11 11:10:46;;;;;;;4.65;2.13;;;15.40;96.80;;;;;;5063206;28;20227;-37
2022/04/11 11:13:36;;;;;;;6.93;3.15;;;15.50;97.00;;;;;;5052722;28;20756;-37
2022/04/11 11:16:06;;;;;;;9.13;2.85;;;15.50;97.20;;;;;;5055620;28;20212;-39
2022/04/11 11:18:46;;;;;;;4.50;2.17;;;15.60;97.20;;;;;;5051318;28;20296;-39
2022/04/11 11:21:16;;;;;;;4.22;2.20;;;15.70;97.30;;;;;;5050480;28;20345;-38
2022/04/11 11:24:10;;;;;;;6.80;2.75;;;15.70;97.20;;;;;;5056467;28;20307;-39
2022/04/11 11:26:59;;;;;;;6.03;2.70;;;15.80;97.10;;;;;;5059433;28;20246;-39
2022/04/11 11:29:29;;;;;;;12.52;3.28;;;15.80;97.40;;;;;;5052332;28;20944;-39
2022/04/11 11:32:00;;;;;;;3.55;2.38;;;15.90;97.10;;;;;;5050920;28;20295;-39
2022/04/11 11:34:30;;;;;;;9.68;2.92;;;15.90;96.70;;;;;;5050626;28;20357;-39
2022/04/11 11:37:12;;;;;;;9.45;3.00;;;15.90;96.80;;;;;;5061980;28;20228;-39
2022/04/11 11:39:42;;;;;;;10.23;3.08;;;16.00;96.70;;;;;;5054041;28;20231;-39
2022/04/11 11:42:18;;;;;;;9.95;3.33;;;16.00;96.80;;;;;;5050724;28;20298;-39
2022/04/11 11:44:50;;;;;;;5.65;3.03;;;16.00;96.70;;;;;;5079243;28;20196;-39
2022/04/11 11:47:26;;;;;;;6.07;2.13;;;16.10;96.70;;;;;;5059822;28;20697;-39
2022/04/11 11:50:05;;;;;;;5.83;2.60;;;16.10;96.60;;;;;;5052140;28;20298;-39
2022/04/11 11:52:38;;;;;;;7.30;3.10;;;16.10;95.70;;;;;;5051842;28;20211;-39
2022/04/11 11:55:08;;;;;;;4.38;1.90;;;16.20;96.20;;;;;;5060355;28;20243;-40
2022/04/11 11:57:41;;;;;;;5.40;2.72;;;16.20;96.80;;;;;;5061671;28;20290;-39
2022/04/11 12:00:11;;;;;;;16.98;3.00;;;16.20;97.10;;;;;;5061743;28;20277;-40
2022/04/11 12:05:28;;;;;;;11.43;2.78;;;16.40;96.50;;;;;;5067986;28;20374;-39
2022/04/11 12:08:04;;;;;;;10.73;2.37;;;16.40;96.60;;;;;;5052053;28;20227;-38
2022/04/11 12:10:34;;;;;;;5.68;2.28;;;16.50;96.60;;;;;;5066543;28;20208;-38
2022/04/11 12:13:03;;;;;;;31.08;5.32;;;16.50;96.80;;;;;;5049336;28;20212;-39
2022/04/11 12:15:35;;;;;;;6.68;2.25;;;16.50;96.30;;;;;;5063424;28;20267;-39
2022/04/11 12:18:09;;;;;;;4.43;2.13;;;16.60;96.80;;;;;;5061935;28;20699;-39
2022/04/11 12:20:39;;;;;;;2.80;2.00;;;16.70;96.90;;;;;;5062814;28;20303;-39
2022/04/11 12:23:10;;;;;;;7.93;2.30;;;16.70;96.10;;;;;;5066072;28;20207;-39
2022/04/11 12:25:42;;;;;;;4.03;1.88;;;16.70;96.60;;;;;;5055134;28;20642;-38
2022/04/11 12:28:26;;;;;;;4.90;2.20;;;16.80;96.60;;;;;;5057025;28;20200;-38
2022/04/11 12:31:02;;;;;;;3.85;1.88;;;16.80;96.80;;;;;;5065365;28;20207;-39
2022/04/11 12:33:34;;;;;;;3.95;2.05;;;16.90;96.70;;;;;;5053073;28;20200;-38
2022/04/11 12:36:23;;;;;;;5.28;1.92;;;17.00;96.80;;;;;;5048650;28;20215;-38
2022/04/11 12:38:52;;;;;;;3.58;1.95;;;17.00;97.00;;;;;;5067030;28;20212;-39
2022/04/11 12:41:31;;;;;;;4.13;2.00;;;17.10;96.90;;;;;;5065403;28;20230;-39
2022/04/11 12:44:10;;;;;;;3.65;1.75;;;17.10;97.30;;;;;;5063214;28;20292;-39
2022/04/11 12:46:48;;;;;;;7.95;2.42;;;17.20;96.80;;;;;;5062398;28;20230;-38
2022/04/11 12:49:17;;;;;;;7.05;2.45;;;17.20;96.90;;;;;;5063074;28;20212;-39
2022/04/11 12:52:01;;;;;;;4.38;2.00;;;17.30;96.80;;;;;;5063820;28;20210;-39
2022/04/11 12:54:40;;;;;;;4.40;2.22;;;17.40;96.90;;;;;;5049239;28;20236;-38
2022/04/11 12:57:11;;;;;;;4.45;2.08;;;17.40;96.90;;;;;;5064730;28;20237;-39
2022/04/11 12:59:45;;;;;;;7.90;2.42;;;17.40;96.50;;;;;;5058417;28;20307;-39
2022/04/11 13:02:28;;;;;;;3.85;2.00;;;17.50;96.80;;;;;;5059015;28;20222;-39
2022/04/11 13:05:08;;;;;;;5.63;2.10;;;17.50;96.20;;;;;;5057909;28;20681;-39
2022/04/11 13:07:58;;;;;;;4.97;2.42;;;17.60;96.60;;;;;;5063173;28;20195;-39
2022/04/11 13:10:27;;;;;;;5.60;2.03;;;17.60;96.40;;;;;;5064444;28;20235;-39
2022/04/11 13:12:56;;;;;;;6.88;2.03;;;17.60;96.60;;;;;;5059595;28;20233;-39
2022/04/11 13:15:26;;;;;;;4.22;1.95;;;17.60;96.60;;;;;;5054334;28;20277;-39